Keystone Islands, Florida
Current Conditions -  °F | °C
As of 9:53 PM on Wednesday 22 Oct 2014 (Local Time) from KOPF Reporting Station
Light Rain Light Rain  
Wind Chill: 75°   Ceiling: Unl
Heat Index: 75°   Visibility: 10mi
Dew Point: 73°   Wind: 0mph
Humidity: 94%   Direction: NA
Pressure: 29.95"   Gusts: NA
Location:  25.8824°N, 80.1808°W
Report Text: KOPF 230153Z AUTO 00000KT 10SM -RA CLR 24/23 A2995 RMK AO2 SLP142 P0001 T02390228
Loading
Personal Weather Stations






























Interactive Weather Map
Tropical Storm Tracking
New forecast layout! Learn more

10-Day Weather Forecast

Advertisements
Track Severe Weather on mobile